Talmage, Utah
Current Conditions -  °F | °C
As of 11:53 PM on Thursday 27 Nov 2014 (Local Time) from KVEL Reporting Station
Clear Clear  
Wind Chill: 26°   Ceiling: Unl
Heat Index: 32°   Visibility: 10mi
Dew Point: 24°   Wind: 7mph
Humidity: 73%   Direction: 270°W
Pressure: 30.21"   Gusts: NA
Location:  40.34°N, 110.43°W
Report Text: KVEL 280653Z AUTO 27006KT 10SM CLR 00/M04 A3021 RMK AO2 SLP229 T00001044 401061033
Loading
Personal Weather Stations






























Interactive Weather Map New forecast layout! Learn more

10-Day Weather Forecast

Advertisements
Track Severe Weather on mobile